createdAt,value
2022-08-28T00:00:12.573Z,20.06
2022-08-28T00:02:39.176Z,20.04
2022-08-28T00:05:08.079Z,20.06
2022-08-28T00:07:35.027Z,20.04
2022-08-28T00:10:01.989Z,20.04
2022-08-28T00:12:28.577Z,20.02
2022-08-28T00:14:55.188Z,20.03
2022-08-28T00:17:21.739Z,20.03
2022-08-28T00:19:48.415Z,20.00
2022-08-28T00:22:14.992Z,19.98
2022-08-28T00:24:43.040Z,19.96
2022-08-28T00:27:28.303Z,19.97
2022-08-28T00:29:54.980Z,19.97
2022-08-28T00:32:25.218Z,19.97
2022-08-28T00:34:52.138Z,19.97
2022-08-28T00:37:18.982Z,19.99
2022-08-28T00:39:46.430Z,19.99
2022-08-28T00:42:13.984Z,19.97
2022-08-28T00:44:40.879Z,19.95
2022-08-28T00:47:08.492Z,19.96
2022-08-28T00:49:40.988Z,19.96
2022-08-28T00:52:12.423Z,19.96
2022-08-28T00:54:57.264Z,19.92
2022-08-28T00:57:34.431Z,19.90
2022-08-28T01:00:01.633Z,19.91
2022-08-28T01:02:28.495Z,19.95
2022-08-28T01:04:55.690Z,19.97
2022-08-28T01:07:23.182Z,19.97
2022-08-28T01:09:54.076Z,19.97
2022-08-28T01:12:29.480Z,19.95
2022-08-28T01:15:00.118Z,19.94
2022-08-28T01:17:31.378Z,19.92
2022-08-28T01:20:03.127Z,19.88
2022-08-28T01:22:29.607Z,19.86
2022-08-28T01:25:00.860Z,19.83
2022-08-28T01:27:27.918Z,19.81
2022-08-28T01:29:55.440Z,19.80
2022-08-28T01:32:42.023Z,19.77
2022-08-28T01:35:12.276Z,19.76
2022-08-28T01:37:39.251Z,19.78
2022-08-28T01:40:09.436Z,19.79
2022-08-28T01:42:39.598Z,19.70
2022-08-28T01:45:11.036Z,19.72
2022-08-28T01:47:42.329Z,19.71
2022-08-28T01:50:11.091Z,19.68
2022-08-28T01:52:39.695Z,19.65
2022-08-28T01:55:07.871Z,19.63
2022-08-28T01:57:35.361Z,19.62
2022-08-28T02:00:02.300Z,19.60
2022-08-28T02:02:29.290Z,19.59
2022-08-28T02:04:55.843Z,19.55
2022-08-28T02:07:22.450Z,19.54
2022-08-28T02:09:49.183Z,19.51
2022-08-28T02:12:15.738Z,19.46
2022-08-28T02:14:42.304Z,19.42
2022-08-28T02:17:08.893Z,19.37
2022-08-28T02:19:36.000Z,19.34
2022-08-28T02:22:04.077Z,19.30
2022-08-28T02:24:30.639Z,19.30
2022-08-28T02:26:57.178Z,19.24
2022-08-28T02:29:23.871Z,19.21
2022-08-28T02:31:50.405Z,19.21
2022-08-28T02:34:16.931Z,19.18
2022-08-28T02:36:43.822Z,19.17
2022-08-28T02:39:11.137Z,19.14
2022-08-28T02:41:37.729Z,19.12
2022-08-28T02:44:04.797Z,19.11
2022-08-28T02:46:31.594Z,19.08
2022-08-28T02:48:58.188Z,19.06
2022-08-28T02:51:25.346Z,19.02
2022-08-28T02:53:52.388Z,19.01
2022-08-28T02:56:19.001Z,18.99
2022-08-28T02:58:45.597Z,18.93
2022-08-28T03:01:13.497Z,18.90
2022-08-28T03:03:41.589Z,18.85
2022-08-28T03:06:09.915Z,18.83
2022-08-28T03:08:36.658Z,18.81
2022-08-28T03:11:03.234Z,18.80
2022-08-28T03:13:30.544Z,18.79
2022-08-28T03:15:58.051Z,18.78
2022-08-28T03:18:27.037Z,18.77
2022-08-28T03:20:55.611Z,18.76
2022-08-28T03:23:29.179Z,18.75
2022-08-28T03:26:10.684Z,18.73
2022-08-28T03:28:40.786Z,18.71
2022-08-28T03:31:09.469Z,18.70
2022-08-28T03:33:36.060Z,18.65
2022-08-28T03:36:04.760Z,18.60
2022-08-28T03:38:31.674Z,18.54
2022-08-28T03:40:58.205Z,18.51
2022-08-28T03:43:25.262Z,18.50
2022-08-28T03:45:52.343Z,18.47
2022-08-28T03:48:20.114Z,18.49
2022-08-28T03:50:47.496Z,18.48
2022-08-28T03:53:15.906Z,18.50
2022-08-28T03:55:42.971Z,18.48
2022-08-28T03:58:09.742Z,18.44
2022-08-28T04:00:46.587Z,18.42
2022-08-28T04:03:13.733Z,18.43
2022-08-28T04:05:44.840Z,18.42
2022-08-28T04:08:16.581Z,18.43
2022-08-28T04:10:45.251Z,18.41
2022-08-28T04:13:13.606Z,18.37
2022-08-28T04:15:41.387Z,18.35
2022-08-28T04:18:09.659Z,18.36
2022-08-28T04:20:36.667Z,18.37
2022-08-28T04:23:04.139Z,18.36
2022-08-28T04:25:31.770Z,18.38
2022-08-28T04:27:58.945Z,18.38
2022-08-28T04:30:25.504Z,18.37
2022-08-28T04:32:52.022Z,18.35
2022-08-28T04:35:18.675Z,18.35
2022-08-28T04:37:45.193Z,18.33
2022-08-28T04:40:13.185Z,18.30
2022-08-28T04:42:40.235Z,18.28
2022-08-28T04:45:07.378Z,18.24
2022-08-28T04:47:37.987Z,18.20
2022-08-28T04:50:06.738Z,18.17
2022-08-28T04:52:33.427Z,18.18
2022-08-28T04:55:00.228Z,18.20
2022-08-28T04:57:26.793Z,18.22
2022-08-28T04:59:53.327Z,18.61
2022-08-28T05:02:20.029Z,19.31
2022-08-28T05:04:47.343Z,19.90
2022-08-28T05:07:14.181Z,20.35
2022-08-28T05:09:40.758Z,20.61
2022-08-28T05:12:07.514Z,20.86
2022-08-28T05:14:34.108Z,21.09
2022-08-28T05:17:00.915Z,21.25
2022-08-28T05:19:28.105Z,21.35
2022-08-28T05:21:55.065Z,21.35
2022-08-28T05:24:22.568Z,21.36
2022-08-28T05:26:49.404Z,21.46
2022-08-28T05:29:17.248Z,21.61
2022-08-28T05:31:44.429Z,21.62
2022-08-28T05:34:13.366Z,21.61
2022-08-28T05:36:40.282Z,21.64
2022-08-28T05:39:09.627Z,21.65
2022-08-28T05:41:38.216Z,21.71
2022-08-28T05:44:08.067Z,21.81
2022-08-28T05:46:37.568Z,21.92
2022-08-28T05:49:09.169Z,21.92
2022-08-28T05:51:36.722Z,21.94
2022-08-28T05:54:03.839Z,21.99
2022-08-28T05:56:34.367Z,21.96
2022-08-28T05:59:02.282Z,22.01
2022-08-28T06:01:31.862Z,22.08
2022-08-28T06:04:02.071Z,22.14
2022-08-28T06:06:30.793Z,22.19
2022-08-28T06:08:59.891Z,22.20
2022-08-28T06:11:30.641Z,22.21
2022-08-28T06:14:02.811Z,22.27
2022-08-28T06:16:31.702Z,22.30
2022-08-28T06:18:59.223Z,21.98
2022-08-28T06:21:26.161Z,21.74
2022-08-28T06:23:52.939Z,21.89
2022-08-28T06:26:19.492Z,22.04
2022-08-28T06:28:46.063Z,21.99
2022-08-28T06:31:24.723Z,21.92
2022-08-28T06:33:57.280Z,21.75
2022-08-28T06:36:27.356Z,21.75
2022-08-28T06:38:55.319Z,21.86
2022-08-28T06:41:21.913Z,22.01
2022-08-28T06:43:48.516Z,22.05
2022-08-28T06:46:15.377Z,22.15
2022-08-28T06:48:42.096Z,22.21
2022-08-28T06:51:11.021Z,22.27
2022-08-28T06:53:39.906Z,22.06
2022-08-28T06:56:26.278Z,22.04
2022-08-28T06:58:55.675Z,22.20
2022-08-28T07:01:29.531Z,22.33
2022-08-28T07:04:00.162Z,22.55
2022-08-28T07:06:28.006Z,22.67
2022-08-28T07:08:54.740Z,22.50
2022-08-28T07:11:28.890Z,22.47
2022-08-28T07:13:56.631Z,22.32
2022-08-28T07:16:27.454Z,22.32
2022-08-28T07:19:11.262Z,22.37
2022-08-28T07:21:41.907Z,22.57
2022-08-28T07:24:10.554Z,22.67
2022-08-28T07:26:40.887Z,22.57
2022-08-28T07:29:09.943Z,22.44
2022-08-28T07:31:40.772Z,22.54
2022-08-28T07:34:08.013Z,22.44
2022-08-28T07:36:35.124Z,22.46
2022-08-28T07:39:01.656Z,22.43
2022-08-28T07:41:31.582Z,22.37
2022-08-28T07:44:17.313Z,22.29
2022-08-28T07:46:45.038Z,22.36
2022-08-28T07:49:12.528Z,22.40
2022-08-28T07:51:39.214Z,22.33
2022-08-28T07:54:05.854Z,22.22
2022-08-28T07:56:33.156Z,22.17
2022-08-28T07:59:01.140Z,22.26
2022-08-28T08:01:30.831Z,22.43
2022-08-28T08:04:01.784Z,22.41
2022-08-28T08:06:33.719Z,22.64
2022-08-28T08:09:02.045Z,22.96
2022-08-28T08:11:32.241Z,23.14
2022-08-28T08:14:05.465Z,23.31
2022-08-28T08:16:39.074Z,23.52
2022-08-28T08:19:10.026Z,23.74
2022-08-28T08:21:37.350Z,23.84
2022-08-28T08:24:04.427Z,23.89
2022-08-28T08:26:31.249Z,23.99
2022-08-28T08:28:58.126Z,24.18
2022-08-28T08:31:32.476Z,24.31
2022-08-28T08:34:02.111Z,24.36
2022-08-28T08:36:30.417Z,24.53
2022-08-28T08:38:59.715Z,24.70
2022-08-28T08:41:31.999Z,24.84
2022-08-28T08:44:06.143Z,24.82
2022-08-28T08:46:49.308Z,24.72
2022-08-28T08:49:19.696Z,24.60
2022-08-28T08:52:12.984Z,24.59
2022-08-28T08:55:02.967Z,24.55
2022-08-28T08:57:32.105Z,24.61
2022-08-28T08:59:58.904Z,24.68
2022-08-28T09:02:32.870Z,24.79
2022-08-28T09:05:13.120Z,24.73
2022-08-28T09:07:56.607Z,24.50
2022-08-28T09:10:25.728Z,24.30
2022-08-28T09:13:06.723Z,24.44
2022-08-28T09:15:39.292Z,24.54
2022-08-28T09:18:19.356Z,24.66
2022-08-28T09:20:51.645Z,24.85
2022-08-28T09:23:18.438Z,25.11
2022-08-28T09:25:51.705Z,25.39
2022-08-28T09:28:32.325Z,25.49
2022-08-28T09:30:58.996Z,25.47
2022-08-28T09:33:37.982Z,25.59
2022-08-28T09:36:27.140Z,25.60
2022-08-28T09:39:10.256Z,25.70
2022-08-28T09:41:59.643Z,25.82
2022-08-28T09:44:26.245Z,25.96
2022-08-28T09:46:53.078Z,25.83
2022-08-28T09:49:26.394Z,25.84
2022-08-28T09:51:54.356Z,25.83
2022-08-28T09:54:48.288Z,25.76
2022-08-28T09:57:14.835Z,25.72
2022-08-28T09:59:42.255Z,25.82
2022-08-28T10:02:23.310Z,25.98
2022-08-28T10:04:55.415Z,26.12
2022-08-28T10:07:39.176Z,26.17
2022-08-28T10:10:42.475Z,26.17
2022-08-28T10:13:37.308Z,26.07
2022-08-28T10:16:10.163Z,25.96
2022-08-28T10:19:05.344Z,25.89
2022-08-28T10:21:31.842Z,25.88
2022-08-28T10:24:26.007Z,25.92
2022-08-28T10:27:03.179Z,26.14
2022-08-28T10:29:49.527Z,26.32
2022-08-28T10:32:42.596Z,26.38
2022-08-28T10:35:12.942Z,26.29
2022-08-28T10:37:45.599Z,25.94
2022-08-28T10:40:26.329Z,25.65
2022-08-28T10:43:14.532Z,25.61
2022-08-28T10:45:41.808Z,25.68
2022-08-28T10:48:22.376Z,25.80
2022-08-28T10:50:56.545Z,25.87
2022-08-28T10:53:30.413Z,25.81
2022-08-28T10:56:03.666Z,25.91
2022-08-28T10:58:34.345Z,25.96
2022-08-28T11:01:06.829Z,26.12
2022-08-28T11:03:44.107Z,26.31
2022-08-28T11:06:27.479Z,26.56
2022-08-28T11:08:57.791Z,26.76
2022-08-28T11:11:46.843Z,27.00
2022-08-28T11:14:27.585Z,27.27
2022-08-28T11:16:58.549Z,27.38
2022-08-28T11:19:43.868Z,27.43
2022-08-28T11:22:18.342Z,27.49
2022-08-28T11:24:48.052Z,27.59
2022-08-28T11:27:24.131Z,27.57
2022-08-28T11:30:01.328Z,27.62
2022-08-28T11:32:28.750Z,27.71
2022-08-28T11:35:32.382Z,27.61
2022-08-28T11:37:58.989Z,27.56
2022-08-28T11:40:28.400Z,27.46
2022-08-28T11:43:16.267Z,27.42
2022-08-28T11:45:46.655Z,27.50
2022-08-28T11:48:22.843Z,27.61
2022-08-28T11:51:04.770Z,27.87
2022-08-28T11:53:49.807Z,28.10
2022-08-28T11:56:35.937Z,28.16
2022-08-28T11:59:17.582Z,28.11
2022-08-28T12:01:44.233Z,28.32
2022-08-28T12:04:15.454Z,28.48
2022-08-28T12:06:45.093Z,28.70
2022-08-28T12:09:13.342Z,28.92
2022-08-28T12:11:42.152Z,28.96
2022-08-28T12:14:08.667Z,28.90
2022-08-28T12:16:58.484Z,28.97
2022-08-28T12:19:41.098Z,29.08
2022-08-28T12:22:22.785Z,29.16
2022-08-28T12:25:03.071Z,29.14
2022-08-28T12:27:31.867Z,29.21
2022-08-28T12:30:00.721Z,29.51
2022-08-28T12:32:48.586Z,29.55
2022-08-28T12:35:22.022Z,29.21
2022-08-28T12:37:54.555Z,29.00
2022-08-28T12:40:23.515Z,29.14
2022-08-28T12:43:00.277Z,29.30
2022-08-28T12:45:50.291Z,29.31
2022-08-28T12:48:52.415Z,29.30
2022-08-28T12:51:20.899Z,29.18
2022-08-28T12:53:51.516Z,29.11
2022-08-28T12:56:20.113Z,28.95
2022-08-28T12:58:47.619Z,29.01
2022-08-28T13:01:33.383Z,29.06
2022-08-28T13:04:05.578Z,28.99
2022-08-28T13:06:38.286Z,28.96
2022-08-28T13:09:16.681Z,28.72
2022-08-28T13:11:49.252Z,28.69
2022-08-28T13:14:39.465Z,28.61
2022-08-28T13:17:06.681Z,28.63
2022-08-28T13:19:35.805Z,28.70
2022-08-28T13:22:03.636Z,28.86
2022-08-28T13:24:46.048Z,29.09
2022-08-28T13:27:12.545Z,29.45
2022-08-28T13:30:08.697Z,29.78
2022-08-28T13:32:39.128Z,29.66
2022-08-28T13:35:29.300Z,29.49
2022-08-28T13:37:59.394Z,29.32
2022-08-28T13:40:56.920Z,29.07
2022-08-28T13:43:20.136Z,28.94
2022-08-28T13:45:48.802Z,29.03
2022-08-28T13:48:19.202Z,29.04
2022-08-28T13:50:49.779Z,29.05
2022-08-28T13:53:19.781Z,29.15
2022-08-28T13:55:48.980Z,29.25
2022-08-28T13:58:16.187Z,29.48
2022-08-28T14:00:48.518Z,30.13
2022-08-28T14:03:34.634Z,30.49
2022-08-28T14:06:02.919Z,31.10
2022-08-28T14:08:30.736Z,31.67
2022-08-28T14:10:57.665Z,32.01
2022-08-28T14:13:27.499Z,32.52
2022-08-28T14:15:56.079Z,32.72
2022-08-28T14:18:24.291Z,33.10
2022-08-28T14:20:50.881Z,33.16
2022-08-28T14:23:17.564Z,33.01
2022-08-28T14:25:47.685Z,32.69
2022-08-28T14:28:15.393Z,32.63
2022-08-28T14:30:46.950Z,32.86
2022-08-28T14:33:16.970Z,32.37
2022-08-28T14:35:43.584Z,31.97
2022-08-28T14:38:11.354Z,31.44
2022-08-28T14:40:40.467Z,30.91
2022-08-28T14:43:09.765Z,30.52
2022-08-28T14:45:47.101Z,30.29
2022-08-28T14:48:15.013Z,30.28
2022-08-28T14:50:43.183Z,30.20
2022-08-28T14:53:10.500Z,30.01
2022-08-28T14:55:46.206Z,30.21
2022-08-28T14:58:13.589Z,30.43
2022-08-28T15:00:43.498Z,30.45
2022-08-28T15:03:10.842Z,30.32
2022-08-28T15:05:37.506Z,30.14
2022-08-28T15:08:12.774Z,30.29
2022-08-28T15:10:43.332Z,30.77
2022-08-28T15:13:10.786Z,31.75
2022-08-28T15:15:42.531Z,32.71
2022-08-28T15:18:10.700Z,33.25
2022-08-28T15:20:46.283Z,33.45
2022-08-28T15:23:14.881Z,33.43
2022-08-28T15:25:41.832Z,33.60
2022-08-28T15:28:08.452Z,33.47
2022-08-28T15:30:36.713Z,33.93
2022-08-28T15:33:03.371Z,34.33
2022-08-28T15:35:30.135Z,34.94
2022-08-28T15:37:57.157Z,35.18
2022-08-28T15:40:42.081Z,35.24
2022-08-28T15:43:08.916Z,34.96
2022-08-28T15:45:40.295Z,34.03
2022-08-28T15:48:07.018Z,33.10
2022-08-28T15:50:34.011Z,32.54
2022-08-28T15:53:01.575Z,32.02
2022-08-28T15:55:28.253Z,31.36
2022-08-28T15:57:55.141Z,30.70
2022-08-28T16:00:22.677Z,30.25
2022-08-28T16:02:49.552Z,29.97
2022-08-28T16:05:16.470Z,30.50
2022-08-28T16:07:43.121Z,31.27
2022-08-28T16:10:13.418Z,32.14
2022-08-28T16:12:40.932Z,33.02
2022-08-28T16:15:08.680Z,33.68
2022-08-28T16:17:35.419Z,33.83
2022-08-28T16:20:05.227Z,33.90
2022-08-28T16:22:36.262Z,33.89
2022-08-28T16:25:05.982Z,33.53
2022-08-28T16:27:32.668Z,33.14
2022-08-28T16:29:59.390Z,33.17
2022-08-28T16:32:25.962Z,33.13
2022-08-28T16:34:52.661Z,33.16
2022-08-28T16:37:21.429Z,33.00
2022-08-28T16:39:53.782Z,33.09
2022-08-28T16:42:20.365Z,33.11
2022-08-28T16:44:46.920Z,33.11
2022-08-28T16:47:13.792Z,32.88
2022-08-28T16:49:40.340Z,32.51
2022-08-28T16:52:06.953Z,31.85
2022-08-28T16:54:33.543Z,31.28
2022-08-28T16:57:00.128Z,30.73
2022-08-28T16:59:26.689Z,30.25
2022-08-28T17:01:54.940Z,29.80
2022-08-28T17:04:22.242Z,29.50
2022-08-28T17:06:49.044Z,29.29
2022-08-28T17:09:15.683Z,29.10
2022-08-28T17:11:42.296Z,28.79
2022-08-28T17:14:12.050Z,28.60
2022-08-28T17:16:39.239Z,28.47
2022-08-28T17:19:05.939Z,28.39
2022-08-28T17:21:50.767Z,28.27
2022-08-28T17:24:17.619Z,28.15
2022-08-28T17:26:44.523Z,28.08
2022-08-28T17:29:11.547Z,27.99
2022-08-28T17:31:38.743Z,27.89
2022-08-28T17:34:07.373Z,27.77
2022-08-28T17:36:36.305Z,27.62
2022-08-28T17:39:05.600Z,27.46
2022-08-28T17:41:33.467Z,27.31
2022-08-28T17:44:01.183Z,27.21
2022-08-28T17:46:27.902Z,27.16
2022-08-28T17:48:56.150Z,27.06
2022-08-28T17:51:33.220Z,27.00
2022-08-28T17:54:10.875Z,26.96
2022-08-28T17:56:37.518Z,26.90
2022-08-28T17:59:04.829Z,26.81
2022-08-28T18:01:31.459Z,26.72
2022-08-28T18:03:58.279Z,26.64
2022-08-28T18:06:25.046Z,26.57
2022-08-28T18:08:51.958Z,26.49
2022-08-28T18:11:19.305Z,26.39
2022-08-28T18:13:46.829Z,26.27
2022-08-28T18:16:14.231Z,26.14
2022-08-28T18:18:41.520Z,26.04
2022-08-28T18:21:11.002Z,25.96
2022-08-28T18:23:39.659Z,25.87
2022-08-28T18:26:08.156Z,25.76
2022-08-28T18:28:36.785Z,25.66
2022-08-28T18:31:06.336Z,25.62
2022-08-28T18:33:33.807Z,25.52
2022-08-28T18:36:00.456Z,25.46
2022-08-28T18:38:34.966Z,25.39
2022-08-28T18:41:05.973Z,25.33
2022-08-28T18:43:33.388Z,25.26
2022-08-28T18:46:01.947Z,25.20
2022-08-28T18:48:29.149Z,25.17
2022-08-28T18:50:55.689Z,25.12
2022-08-28T18:53:23.148Z,25.09
2022-08-28T18:55:52.714Z,24.98
2022-08-28T18:58:20.482Z,24.90
2022-08-28T19:00:47.494Z,24.83
2022-08-28T19:03:14.575Z,24.74
2022-08-28T19:05:41.782Z,24.66
2022-08-28T19:08:08.384Z,24.60
2022-08-28T19:10:36.870Z,24.54
2022-08-28T19:13:04.381Z,24.48
2022-08-28T19:15:31.742Z,24.44
2022-08-28T19:18:00.392Z,24.38
2022-08-28T19:20:28.259Z,24.34
2022-08-28T19:22:55.614Z,24.32
2022-08-28T19:25:28.381Z,24.26
2022-08-28T19:27:59.558Z,24.19
2022-08-28T19:30:27.937Z,24.16
2022-08-28T19:32:56.147Z,24.09
2022-08-28T19:35:24.589Z,24.04
2022-08-28T19:37:52.938Z,24.01
2022-08-28T19:40:20.884Z,23.95
2022-08-28T19:42:48.037Z,23.91
2022-08-28T19:45:15.175Z,23.88
2022-08-28T19:47:41.991Z,23.85
2022-08-28T19:50:14.646Z,23.81
2022-08-28T19:52:43.265Z,23.79
2022-08-28T19:55:17.505Z,23.72
2022-08-28T19:57:44.718Z,23.67
2022-08-28T20:00:12.059Z,23.60
2022-08-28T20:02:39.787Z,23.54
2022-08-28T20:05:07.154Z,23.48
2022-08-28T20:07:33.705Z,23.44
2022-08-28T20:10:00.848Z,23.39
2022-08-28T20:12:27.567Z,23.35
2022-08-28T20:14:54.151Z,23.32
2022-08-28T20:17:23.778Z,23.26
2022-08-28T20:19:50.363Z,23.21
2022-08-28T20:22:17.691Z,23.17
2022-08-28T20:24:44.317Z,23.11
2022-08-28T20:27:11.074Z,23.05
2022-08-28T20:29:39.102Z,23.02
2022-08-28T20:32:05.800Z,22.96
2022-08-28T20:34:32.441Z,22.92
2022-08-28T20:36:59.029Z,22.87
2022-08-28T20:39:25.785Z,22.82
2022-08-28T20:41:52.414Z,22.77
2022-08-28T20:44:20.528Z,22.73
2022-08-28T20:46:51.265Z,22.66
2022-08-28T20:49:21.853Z,22.59
2022-08-28T20:51:56.625Z,22.51
2022-08-28T20:54:27.497Z,22.46
2022-08-28T20:56:55.646Z,22.41
2022-08-28T20:59:22.285Z,22.35
2022-08-28T21:01:51.978Z,22.30
2022-08-28T21:04:19.509Z,22.23
2022-08-28T21:06:48.932Z,22.16
2022-08-28T21:09:17.170Z,22.11
2022-08-28T21:11:44.176Z,22.06
2022-08-28T21:14:11.497Z,22.02
2022-08-28T21:16:40.269Z,21.96
2022-08-28T21:19:15.690Z,21.93
2022-08-28T21:21:44.072Z,21.91
2022-08-28T21:24:13.288Z,21.88
2022-08-28T21:26:45.187Z,21.82
2022-08-28T21:29:12.825Z,21.72
2022-08-28T21:31:42.600Z,21.71
2022-08-28T21:34:10.616Z,21.70
2022-08-28T21:36:41.524Z,21.66
2022-08-28T21:39:08.081Z,21.65
2022-08-28T21:41:34.755Z,21.61
2022-08-28T21:44:01.391Z,21.56
2022-08-28T21:46:29.055Z,21.52
2022-08-28T21:48:56.661Z,21.47
2022-08-28T21:51:24.588Z,21.43
2022-08-28T21:53:52.019Z,21.39
2022-08-28T21:56:26.852Z,21.32
2022-08-28T21:58:54.558Z,21.30
2022-08-28T22:01:24.602Z,21.27
2022-08-28T22:03:51.506Z,21.25
2022-08-28T22:06:22.040Z,21.21
2022-08-28T22:08:49.777Z,21.15
2022-08-28T22:11:17.073Z,21.10
2022-08-28T22:13:51.729Z,21.05
2022-08-28T22:16:18.435Z,20.98
2022-08-28T22:18:45.161Z,20.96
2022-08-28T22:21:35.826Z,20.93
2022-08-28T22:24:02.572Z,20.91
2022-08-28T22:26:29.276Z,20.87
2022-08-28T22:28:56.960Z,20.84
2022-08-28T22:31:24.698Z,20.77
2022-08-28T22:33:52.484Z,20.71
2022-08-28T22:36:20.381Z,20.63
2022-08-28T22:38:53.070Z,20.58
2022-08-28T22:41:20.310Z,20.50
2022-08-28T22:43:48.436Z,20.46
2022-08-28T22:46:18.833Z,20.42
2022-08-28T22:48:46.032Z,20.40
2022-08-28T22:51:15.231Z,20.38
2022-08-28T22:53:43.690Z,20.35
2022-08-28T22:56:12.258Z,20.31
2022-08-28T22:58:39.511Z,20.27
2022-08-28T23:01:10.260Z,20.26
2022-08-28T23:03:37.517Z,20.22
2022-08-28T23:06:04.172Z,20.20
2022-08-28T23:08:33.863Z,20.14
2022-08-28T23:11:01.148Z,20.11
2022-08-28T23:13:28.550Z,20.10
2022-08-28T23:15:55.133Z,20.08
2022-08-28T23:18:21.768Z,20.08
2022-08-28T23:20:50.538Z,20.07
2022-08-28T23:23:17.449Z,20.10
2022-08-28T23:25:44.314Z,20.09
2022-08-28T23:28:10.880Z,20.09
2022-08-28T23:30:39.020Z,20.06
2022-08-28T23:33:08.450Z,20.05
2022-08-28T23:35:36.300Z,20.05
2022-08-28T23:38:04.635Z,20.04
2022-08-28T23:40:33.934Z,20.03
2022-08-28T23:43:00.877Z,20.02
2022-08-28T23:45:27.546Z,20.01
2022-08-28T23:47:54.917Z,19.99
2022-08-28T23:50:22.981Z,19.98
2022-08-28T23:52:50.312Z,19.96
2022-08-28T23:55:18.742Z,19.94
2022-08-28T23:57:45.719Z,19.94
